createdAt,value
2019-02-05T00:02:21.471Z,23.33
2019-02-05T00:04:59.812Z,23.00
2019-02-05T00:07:33.907Z,21.77
2019-02-05T00:10:03.019Z,23.00
2019-02-05T00:12:32.211Z,23.90
2019-02-05T00:15:09.425Z,23.03
2019-02-05T00:18:14.512Z,23.83
2019-02-05T00:20:57.356Z,23.93
2019-02-05T00:23:26.378Z,23.67
2019-02-05T00:26:05.667Z,27.07
2019-02-05T00:28:27.186Z,26.17
2019-02-05T00:31:00.017Z,24.57
2019-02-05T00:33:51.761Z,25.83
2019-02-05T00:36:01.617Z,24.20
2019-02-05T00:38:59.163Z,25.23
2019-02-05T00:41:35.311Z,24.13
2019-02-05T00:44:04.830Z,24.63
2019-02-05T00:46:54.019Z,24.17
2019-02-05T00:49:41.533Z,24.30
2019-02-05T00:52:10.711Z,24.80
2019-02-05T00:54:40.540Z,24.27
2019-02-05T00:57:11.343Z,24.83
2019-02-05T00:59:40.430Z,23.57
2019-02-05T01:05:34.297Z,23.10
2019-02-05T01:08:18.052Z,22.50
2019-02-05T01:10:47.740Z,21.93
2019-02-05T01:13:28.078Z,21.50
2019-02-05T01:16:04.081Z,21.33
2019-02-05T01:18:37.817Z,20.43
2019-02-05T01:21:06.813Z,20.03
2019-02-05T01:23:37.478Z,19.53
2019-02-05T01:26:07.680Z,19.30
2019-02-05T01:28:36.850Z,18.53
2019-02-05T01:31:07.943Z,19.03
2019-02-05T01:33:46.779Z,17.40
2019-02-05T01:36:16.401Z,18.23
2019-02-05T01:38:54.797Z,17.93
2019-02-05T01:41:26.752Z,16.50
2019-02-05T01:46:39.821Z,16.03
2019-02-05T01:49:08.802Z,16.20
2019-02-05T01:51:41.061Z,15.97
2019-02-05T01:54:12.488Z,15.23
2019-02-05T01:56:45.240Z,14.70
2019-02-05T01:59:21.792Z,14.13
2019-02-05T02:01:50.794Z,15.10
2019-02-05T02:04:37.955Z,13.30
2019-02-05T02:06:58.250Z,13.83
2019-02-05T02:09:44.674Z,13.67
2019-02-05T02:12:13.712Z,13.40
2019-02-05T02:14:43.469Z,13.40
2019-02-05T02:17:24.111Z,13.73
2019-02-05T02:19:53.332Z,12.67
2019-02-05T02:22:25.470Z,12.77
2019-02-05T02:24:56.459Z,11.87
2019-02-05T02:27:25.398Z,10.97
2019-02-05T02:29:54.347Z,11.90
2019-02-05T02:32:23.320Z,11.57
2019-02-05T02:34:55.411Z,11.73
2019-02-05T02:37:24.774Z,11.53
2019-02-05T02:39:54.063Z,11.20
2019-02-05T02:42:23.953Z,11.27
2019-02-05T02:44:53.460Z,10.63
2019-02-05T02:47:27.749Z,10.80
2019-02-05T02:50:03.402Z,11.10
2019-02-05T02:52:50.230Z,10.33
2019-02-05T02:55:19.541Z,9.87
2019-02-05T02:58:09.151Z,10.47
2019-02-05T03:00:58.939Z,9.83
2019-02-05T03:03:41.940Z,9.87
2019-02-05T03:06:11.041Z,10.00
2019-02-05T03:09:10.627Z,10.00
2019-02-05T03:11:41.965Z,10.03
2019-02-05T03:14:11.159Z,9.40
2019-02-05T03:16:40.088Z,9.57
2019-02-05T03:19:09.472Z,9.47
2019-02-05T03:21:42.441Z,9.77
2019-02-05T03:28:00.032Z,9.60
2019-02-05T03:31:03.414Z,9.70
2019-02-05T03:33:32.863Z,8.97
2019-02-05T03:36:02.179Z,8.87
2019-02-05T03:38:33.321Z,10.13
2019-02-05T03:41:03.793Z,9.30
2019-02-05T03:43:36.659Z,9.03
2019-02-05T03:46:07.176Z,9.00
2019-02-05T03:48:36.183Z,8.80
2019-02-05T03:51:27.073Z,8.73
2019-02-05T03:54:26.072Z,8.70
2019-02-05T03:57:13.212Z,8.50
2019-02-05T04:00:13.841Z,8.90
2019-02-05T04:06:00.083Z,9.23
2019-02-05T04:09:19.555Z,8.43
2019-02-05T04:12:12.032Z,8.10
2019-02-05T04:15:10.158Z,7.93
2019-02-05T04:17:53.975Z,9.27
2019-02-05T04:21:25.328Z,8.10
2019-02-05T04:24:33.498Z,8.33
2019-02-05T04:28:01.169Z,8.20
2019-02-05T04:34:38.757Z,8.47
2019-02-05T04:38:00.066Z,7.77
2019-02-05T04:41:28.671Z,7.57
2019-02-05T04:44:22.759Z,8.20
2019-02-05T04:47:42.371Z,8.03
2019-02-05T04:54:28.914Z,8.07
2019-02-05T04:57:24.019Z,8.07
2019-02-05T05:00:22.737Z,8.30
2019-02-05T05:03:27.910Z,8.17
2019-02-05T05:06:21.473Z,8.23
2019-02-05T05:09:26.007Z,7.77
2019-02-05T05:12:17.058Z,7.77
2019-02-05T05:18:15.502Z,8.83
2019-02-05T05:20:56.249Z,8.30
2019-02-05T05:23:25.268Z,7.87
2019-02-05T05:25:55.765Z,8.23
2019-02-05T05:28:37.351Z,7.97
2019-02-05T05:31:24.306Z,8.60
2019-02-05T05:33:53.479Z,11.10
2019-02-05T05:36:41.908Z,10.33
2019-02-05T05:39:11.994Z,11.47
2019-02-05T05:42:02.634Z,11.53
2019-02-05T05:44:32.156Z,11.60
2019-02-05T05:47:01.738Z,12.33
2019-02-05T05:50:00.880Z,11.77
2019-02-05T05:52:30.250Z,11.57
2019-02-05T05:54:59.595Z,10.77
2019-02-05T05:57:29.100Z,11.00
2019-02-05T06:00:00.876Z,11.03
2019-02-05T06:02:45.980Z,11.90
2019-02-05T06:05:39.611Z,11.57
2019-02-05T06:08:09.593Z,11.47
2019-02-05T06:10:42.888Z,11.37
2019-02-05T06:13:36.566Z,10.57
2019-02-05T06:16:05.565Z,11.50
2019-02-05T06:18:36.540Z,10.90
2019-02-05T06:21:21.487Z,11.00
2019-02-05T06:24:31.099Z,11.87
2019-02-05T06:27:00.462Z,9.93
2019-02-05T06:32:31.130Z,11.00
2019-02-05T06:35:22.877Z,10.87
2019-02-05T06:40:41.881Z,10.10
2019-02-05T06:43:10.788Z,10.23
2019-02-05T06:45:41.632Z,10.30
2019-02-05T06:51:02.628Z,9.90
2019-02-05T06:53:31.900Z,9.47
2019-02-05T06:56:08.874Z,9.53
2019-02-05T06:58:46.495Z,9.70
2019-02-05T07:01:33.170Z,9.53
2019-02-05T07:04:02.634Z,8.80
2019-02-05T07:06:33.384Z,8.77
2019-02-05T07:09:04.456Z,9.63
2019-02-05T07:11:33.557Z,9.60
2019-02-05T07:14:03.105Z,9.27
2019-02-05T07:16:36.984Z,9.23
2019-02-05T07:19:06.057Z,9.40
2019-02-05T07:21:35.044Z,10.00
2019-02-05T07:24:26.952Z,10.00
2019-02-05T07:27:00.232Z,9.77
2019-02-05T07:29:31.699Z,9.20
2019-02-05T07:32:06.121Z,8.53
2019-02-05T07:34:35.218Z,8.53
2019-02-05T07:37:12.108Z,9.50
2019-02-05T07:42:29.765Z,9.03
2019-02-05T07:45:27.380Z,9.50
2019-02-05T07:48:01.113Z,9.67
2019-02-05T07:50:33.853Z,10.27
2019-02-05T07:53:05.671Z,10.43
2019-02-05T07:55:38.770Z,10.13
2019-02-05T07:58:09.244Z,11.23
2019-02-05T08:01:05.802Z,11.10
2019-02-05T08:03:35.314Z,10.63
2019-02-05T08:06:21.973Z,11.67
2019-02-05T08:08:51.324Z,11.67
2019-02-05T08:11:28.777Z,12.03
2019-02-05T08:13:58.011Z,13.27
2019-02-05T08:16:27.528Z,14.13
2019-02-05T08:18:56.435Z,12.63
2019-02-05T08:21:42.199Z,13.37
2019-02-05T08:24:11.582Z,13.00
2019-02-05T08:26:40.649Z,13.50
2019-02-05T08:29:21.414Z,12.73
2019-02-05T08:31:51.840Z,12.50
2019-02-05T08:34:20.815Z,13.77
2019-02-05T08:36:49.820Z,13.07
2019-02-05T08:39:19.087Z,13.00
2019-02-05T08:41:48.287Z,12.23
2019-02-05T08:44:17.421Z,12.27
2019-02-05T08:46:51.053Z,12.53
2019-02-05T08:49:26.730Z,12.97
2019-02-05T08:51:57.811Z,12.87
2019-02-05T08:54:27.555Z,12.47
2019-02-05T08:57:04.473Z,11.97
2019-02-05T08:59:35.171Z,12.70
2019-02-05T09:02:13.246Z,11.47
2019-02-05T09:04:43.560Z,12.33
2019-02-05T09:07:13.388Z,12.23
2019-02-05T09:09:45.919Z,11.17
2019-02-05T09:12:18.153Z,11.97
2019-02-05T09:14:47.180Z,11.10
2019-02-05T09:17:18.668Z,10.97
2019-02-05T09:19:49.876Z,10.60
2019-02-05T09:22:43.684Z,11.20
2019-02-05T09:25:12.916Z,10.80
2019-02-05T09:27:45.295Z,11.33
2019-02-05T09:30:31.001Z,10.30
2019-02-05T09:33:08.033Z,10.73
2019-02-05T09:35:37.692Z,10.60
2019-02-05T09:38:10.547Z,10.50
2019-02-05T09:40:39.629Z,11.03
2019-02-05T09:43:10.562Z,10.97
2019-02-05T09:45:43.231Z,10.70
2019-02-05T09:48:15.498Z,10.67
2019-02-05T09:50:45.281Z,10.57
2019-02-05T09:53:14.372Z,10.33
2019-02-05T09:55:46.063Z,10.97
2019-02-05T09:58:15.312Z,10.80
2019-02-05T10:00:46.719Z,10.00
2019-02-05T10:03:15.921Z,10.93
2019-02-05T10:05:47.017Z,10.73
2019-02-05T10:08:38.187Z,10.40
2019-02-05T10:11:12.124Z,10.90
2019-02-05T10:13:42.996Z,11.27
2019-02-05T10:18:51.484Z,12.90
2019-02-05T10:21:20.581Z,14.07
2019-02-05T10:23:49.985Z,14.90
2019-02-05T10:26:20.104Z,14.13
2019-02-05T10:28:50.226Z,15.60
2019-02-05T10:31:19.657Z,15.80
2019-02-05T10:37:01.279Z,15.80
2019-02-05T10:42:36.852Z,17.63
2019-02-05T10:45:07.179Z,18.57
2019-02-05T10:47:39.194Z,18.47
2019-02-05T10:50:12.641Z,19.03
2019-02-05T10:55:51.826Z,19.97
2019-02-05T10:58:43.766Z,19.10
2019-02-05T11:01:12.786Z,19.63
2019-02-05T11:03:42.039Z,20.17
2019-02-05T11:06:11.040Z,20.60
2019-02-05T11:08:41.502Z,21.47
2019-02-05T11:11:38.840Z,21.90
2019-02-05T11:14:30.113Z,22.73
2019-02-05T11:16:59.723Z,23.20
2019-02-05T11:19:28.752Z,23.10
2019-02-05T11:21:57.983Z,23.73
2019-02-05T11:24:27.071Z,24.07
2019-02-05T11:26:59.969Z,24.27
2019-02-05T11:29:29.521Z,23.87
2019-02-05T11:32:53.087Z,24.10
2019-02-05T11:34:36.691Z,23.23
2019-02-05T11:39:52.513Z,23.87
2019-02-05T11:42:42.812Z,23.50
2019-02-05T11:45:13.285Z,22.73
2019-02-05T11:47:44.152Z,23.53
2019-02-05T11:50:20.813Z,22.77
2019-02-05T11:52:50.263Z,23.00
2019-02-05T11:55:22.064Z,23.83
2019-02-05T11:58:05.230Z,22.87
2019-02-05T12:00:46.412Z,22.30
2019-02-05T12:03:16.091Z,24.27
2019-02-05T12:05:52.785Z,23.90
2019-02-05T12:08:21.789Z,23.40
2019-02-05T12:10:50.975Z,23.53
2019-02-05T12:13:23.134Z,23.47
2019-02-05T12:16:08.549Z,23.27
2019-02-05T12:19:02.350Z,23.30
2019-02-05T12:21:31.764Z,23.70
2019-02-05T12:24:04.112Z,22.83
2019-02-05T12:31:56.955Z,23.10
2019-02-05T12:34:41.980Z,22.37
2019-02-05T12:37:11.609Z,21.87
2019-02-05T12:39:48.218Z,22.77
2019-02-05T12:42:36.725Z,22.13
2019-02-05T12:45:25.094Z,22.10
2019-02-05T12:47:54.081Z,22.23
2019-02-05T12:52:59.259Z,23.10
2019-02-05T12:55:28.895Z,23.33
2019-02-05T12:58:21.588Z,24.43
2019-02-05T13:00:59.137Z,22.00
2019-02-05T13:03:24.632Z,22.77
2019-02-05T13:05:59.671Z,23.20
2019-02-05T13:08:28.633Z,23.77
2019-02-05T13:11:18.846Z,23.40
2019-02-05T13:13:50.635Z,23.40
2019-02-05T13:16:20.798Z,22.63
2019-02-05T13:22:03.212Z,24.17
2019-02-05T13:24:35.924Z,26.47
2019-02-05T13:27:21.601Z,26.53
2019-02-05T13:30:00.118Z,27.77
2019-02-05T13:35:29.075Z,26.03
2019-02-05T13:37:59.335Z,27.00
2019-02-05T13:40:31.290Z,27.53
2019-02-05T13:46:26.544Z,27.47
2019-02-05T13:49:04.679Z,26.40
2019-02-05T13:51:33.708Z,26.53
2019-02-05T13:54:02.857Z,26.87
2019-02-05T13:56:32.266Z,28.70
2019-02-05T13:59:01.532Z,28.23
2019-02-05T14:01:47.043Z,27.03
2019-02-05T14:04:45.441Z,27.70
2019-02-05T14:07:14.496Z,29.07
2019-02-05T14:09:43.683Z,28.80
2019-02-05T14:12:13.022Z,27.07
2019-02-05T14:14:45.571Z,27.93
2019-02-05T14:17:18.885Z,26.90
2019-02-05T14:19:49.802Z,28.07
2019-02-05T14:22:20.768Z,28.27
2019-02-05T14:28:15.170Z,28.00
2019-02-05T14:30:58.411Z,27.97
2019-02-05T14:33:33.951Z,26.13
2019-02-05T14:36:02.045Z,25.87
2019-02-05T14:39:00.551Z,25.50
2019-02-05T14:44:44.436Z,26.50
2019-02-05T14:47:13.504Z,26.23
2019-02-05T14:49:42.917Z,25.33
2019-02-05T14:52:17.756Z,25.57
2019-02-05T14:54:46.793Z,24.27
2019-02-05T14:57:16.099Z,25.30
2019-02-05T15:00:07.927Z,24.33
2019-02-05T15:02:39.856Z,24.87
2019-02-05T15:05:13.870Z,23.90
2019-02-05T15:08:02.209Z,24.07
2019-02-05T15:10:31.672Z,22.63
2019-02-05T15:13:11.195Z,24.93
2019-02-05T15:15:40.905Z,24.47
2019-02-05T15:18:12.982Z,24.63
2019-02-05T15:23:39.398Z,24.73
2019-02-05T15:26:15.297Z,24.60
2019-02-05T15:28:44.395Z,23.90
2019-02-05T15:31:13.565Z,24.23
2019-02-05T15:33:59.683Z,24.90
2019-02-05T15:36:33.921Z,24.03
2019-02-05T15:39:16.141Z,24.60
2019-02-05T15:41:52.646Z,25.90
2019-02-05T15:44:38.374Z,25.93
2019-02-05T15:47:17.026Z,25.63
2019-02-05T15:49:46.318Z,26.20
2019-02-05T15:52:16.914Z,25.37
2019-02-05T15:54:46.213Z,27.90
2019-02-05T15:57:17.544Z,27.77
2019-02-05T15:59:47.889Z,30.80
2019-02-05T16:02:28.811Z,31.67
2019-02-05T16:07:51.316Z,30.47
2019-02-05T16:13:36.569Z,33.60
2019-02-05T16:16:13.989Z,34.37
2019-02-05T16:18:43.341Z,35.03
2019-02-05T16:21:14.685Z,36.30
2019-02-05T16:23:46.873Z,35.97
2019-02-05T16:26:19.933Z,35.27
2019-02-05T16:28:49.343Z,35.90
2019-02-05T16:31:18.562Z,36.90
2019-02-05T16:34:02.480Z,37.80
2019-02-05T16:39:20.580Z,37.27
2019-02-05T16:41:49.926Z,36.23
2019-02-05T16:44:28.128Z,38.83
2019-02-05T17:14:29.655Z,41.40
2019-02-05T17:16:58.952Z,43.57
2019-02-05T17:19:31.833Z,41.83
2019-02-05T17:25:17.351Z,44.90
2019-02-05T17:27:54.290Z,43.50
2019-02-05T17:30:27.928Z,44.40
2019-02-05T17:32:59.824Z,44.93
2019-02-05T17:35:35.456Z,45.73
2019-02-05T17:38:05.933Z,45.57
2019-02-05T17:40:39.669Z,46.53
2019-02-05T17:43:16.183Z,45.93
2019-02-05T17:45:54.439Z,46.73
2019-02-05T17:48:27.604Z,44.50
2019-02-05T17:51:04.276Z,44.67
2019-02-05T17:53:59.028Z,43.27
2019-02-05T17:56:41.934Z,43.83
2019-02-05T17:59:27.831Z,44.33
2019-02-05T18:01:57.320Z,44.33
2019-02-05T18:04:27.249Z,46.03
2019-02-05T18:07:11.147Z,43.70
2019-02-05T18:09:58.507Z,42.00
2019-02-05T18:12:33.562Z,42.30
2019-02-05T18:15:14.223Z,40.57
2019-02-05T18:17:44.599Z,41.70
2019-02-05T18:20:17.094Z,40.97
2019-02-05T18:22:51.850Z,39.57
2019-02-05T18:25:29.147Z,40.10
2019-02-05T18:31:19.347Z,36.53
2019-02-05T18:39:36.101Z,34.37
2019-02-05T18:42:08.513Z,33.27
2019-02-05T18:44:48.086Z,31.53
2019-02-05T18:47:18.711Z,32.40
2019-02-05T18:49:47.984Z,32.20
2019-02-05T18:52:17.295Z,32.53
2019-02-05T18:54:46.705Z,30.53
2019-02-05T18:57:15.930Z,30.87
2019-02-05T18:59:45.216Z,29.50
2019-02-05T19:02:17.233Z,30.77
2019-02-05T19:04:48.170Z,28.53
2019-02-05T19:07:17.884Z,30.67
2019-02-05T19:09:47.334Z,29.43
2019-02-05T19:12:18.144Z,29.07
2019-02-05T19:14:47.324Z,30.93
2019-02-05T19:20:09.220Z,29.73
2019-02-05T19:22:41.284Z,31.00
2019-02-05T19:25:18.348Z,28.67
2019-02-05T19:27:49.976Z,29.23
2019-02-05T19:30:43.682Z,29.83
2019-02-05T19:33:13.621Z,28.93
2019-02-05T19:35:47.071Z,28.77
2019-02-05T19:38:40.410Z,29.63
2019-02-05T19:41:27.592Z,28.30
2019-02-05T19:43:56.998Z,28.67
2019-02-05T19:46:58.323Z,28.33
2019-02-05T19:49:32.594Z,29.13
2019-02-05T19:52:10.159Z,29.67
2019-02-05T19:57:31.923Z,29.13
2019-02-05T20:02:46.397Z,29.97
2019-02-05T20:05:15.590Z,29.50
2019-02-05T20:07:45.072Z,29.93
2019-02-05T20:13:00.134Z,31.20
2019-02-05T20:15:29.460Z,30.90
2019-02-05T20:18:09.040Z,32.00
2019-02-05T20:20:38.277Z,31.80
2019-02-05T20:23:08.377Z,31.40
2019-02-05T20:28:26.318Z,31.97
2019-02-05T20:53:48.825Z,35.10
2019-02-05T20:56:17.935Z,34.87
2019-02-05T20:58:46.898Z,35.07
2019-02-05T21:01:15.975Z,33.00
2019-02-05T21:06:21.370Z,33.90
2019-02-05T21:08:50.751Z,35.40
2019-02-05T21:11:25.755Z,34.17
2019-02-05T21:13:50.483Z,33.60
2019-02-05T21:16:23.660Z,34.73
2019-02-05T21:19:07.957Z,34.10
2019-02-05T21:21:37.200Z,33.63
2019-02-05T21:24:10.187Z,33.33
2019-02-05T21:26:39.651Z,34.20
2019-02-05T21:29:14.595Z,34.57
2019-02-05T21:31:40.906Z,33.17
2019-02-05T21:34:15.914Z,34.13
2019-02-05T21:36:44.269Z,34.10
2019-02-05T23:02:10.900Z,36.90
2019-02-05T23:05:20.532Z,36.53
2019-02-05T23:07:49.927Z,37.43
2019-02-05T23:11:03.409Z,36.33
2019-02-05T23:13:30.148Z,35.87
2019-02-05T23:16:02.124Z,36.30
2019-02-05T23:18:31.199Z,36.20
2019-02-05T23:21:00.303Z,36.87
2019-02-05T23:23:29.354Z,37.87
2019-02-05T23:25:59.488Z,36.67
2019-02-05T23:28:28.582Z,38.43
2019-02-05T23:31:18.231Z,37.70
2019-02-05T23:33:47.171Z,37.57
2019-02-05T23:36:16.332Z,37.60
2019-02-05T23:38:45.235Z,37.83
2019-02-05T23:41:14.572Z,38.63
2019-02-05T23:43:45.313Z,39.40
2019-02-05T23:46:39.159Z,39.23
2019-02-05T23:49:12.038Z,39.27
2019-02-05T23:51:41.139Z,39.53
2019-02-05T23:54:26.549Z,38.07
2019-02-05T23:56:56.134Z,39.43
2019-02-05T23:59:26.948Z,38.97
